sensor_id;sensor_type;location;lat;lon;timestamp;pressure;altitude;pressure_sealevel;temperature;humidity
38939;BME280;24211;49.980;19.776;2023-03-05T00:01:29;99025.00;;;2.84;100.00
38939;BME280;24211;49.980;19.776;2023-03-05T00:04:00;99019.09;;;2.82;100.00
38939;BME280;24211;49.980;19.776;2023-03-05T00:06:32;99021.72;;;2.82;100.00
38939;BME280;24211;49.980;19.776;2023-03-05T00:09:00;99019.09;;;2.82;100.00
38939;BME280;24211;49.980;19.776;2023-03-05T00:11:30;99020.06;;;2.81;100.00
38939;BME280;24211;49.980;19.776;2023-03-05T00:14:01;99023.09;;;2.78;100.00
38939;BME280;24211;49.980;19.776;2023-03-05T00:16:30;99023.09;;;2.78;100.00
38939;BME280;24211;49.980;19.776;2023-03-05T00:18:59;99020.06;;;2.81;100.00
38939;BME280;24211;49.980;19.776;2023-03-05T00:21:33;99020.06;;;2.81;100.00
38939;BME280;24211;49.980;19.776;2023-03-05T00:24:10;99019.09;;;2.82;100.00
38939;BME280;24211;49.980;19.776;2023-03-05T00:26:38;99016.44;;;2.82;100.00
38939;BME280;24211;49.980;19.776;2023-03-05T00:29:08;99025.72;;;2.78;100.00
38939;BME280;24211;49.980;19.776;2023-03-05T00:31:36;99011.53;;;2.79;100.00
38939;BME280;24211;49.980;19.776;2023-03-05T00:34:08;99008.25;;;2.77;100.00
38939;BME280;24211;49.980;19.776;2023-03-05T00:36:43;99004.63;;;2.78;100.00
38939;BME280;24211;49.980;19.776;2023-03-05T00:39:12;99002.63;;;2.80;100.00
38939;BME280;24211;49.980;19.776;2023-03-05T00:41:40;99002.63;;;2.80;100.00
38939;BME280;24211;49.980;19.776;2023-03-05T00:44:07;99002.63;;;2.80;100.00
38939;BME280;24211;49.980;19.776;2023-03-05T00:46:35;98996.50;;;2.79;100.00
38939;BME280;24211;49.980;19.776;2023-03-05T00:49:03;98990.41;;;2.79;100.00
38939;BME280;24211;49.980;19.776;2023-03-05T00:51:30;98994.06;;;2.78;100.00
38939;BME280;24211;49.980;19.776;2023-03-05T00:53:57;98992.41;;;2.77;100.00
38939;BME280;24211;49.980;19.776;2023-03-05T00:56:25;98989.16;;;2.75;100.00
38939;BME280;24211;49.980;19.776;2023-03-05T00:58:52;98986.50;;;2.75;100.00
38939;BME280;24211;49.980;19.776;2023-03-05T01:01:20;98985.88;;;2.73;100.00
38939;BME280;24211;49.980;19.776;2023-03-05T01:03:47;98985.88;;;2.73;100.00
38939;BME280;24211;49.980;19.776;2023-03-05T01:06:15;98986.88;;;2.72;100.00
38939;BME280;24211;49.980;19.776;2023-03-05T01:08:43;98982.22;;;2.74;100.00
38939;BME280;24211;49.980;19.776;2023-03-05T01:11:11;98980.59;;;2.73;100.00
38939;BME280;24211;49.980;19.776;2023-03-05T01:13:39;98985.06;;;2.72;100.00
38939;BME280;24211;49.980;19.776;2023-03-05T01:16:07;98979.78;;;2.72;100.00
38939;BME280;24211;49.980;19.776;2023-03-05T01:18:36;98981.41;;;2.73;100.00
38939;BME280;24211;49.980;19.776;2023-03-05T01:21:04;98979.78;;;2.72;100.00
38939;BME280;24211;49.980;19.776;2023-03-05T01:23:31;98984.22;;;2.72;100.00
38939;BME280;24211;49.980;19.776;2023-03-05T01:26:00;98975.34;;;2.73;100.00
38939;BME280;24211;49.980;19.776;2023-03-05T01:28:28;98972.03;;;2.71;100.00
38939;BME280;24211;49.980;19.776;2023-03-05T01:30:55;98984.22;;;2.72;100.00
38939;BME280;24211;49.980;19.776;2023-03-05T01:33:22;98981.94;;;2.69;100.00
38939;BME280;24211;49.980;19.776;2023-03-05T01:35:50;98978.50;;;2.68;100.00
38939;BME280;24211;49.980;19.776;2023-03-05T01:38:18;98980.13;;;2.69;100.00
38939;BME280;24211;49.980;19.776;2023-03-05T01:40:45;98982.97;;;2.68;100.00
38939;BME280;24211;49.980;19.776;2023-03-05T01:48:41;98980.50;;;2.66;100.00
38939;BME280;24211;49.980;19.776;2023-03-05T01:51:10;98978.06;;;2.64;100.00
38939;BME280;24211;49.980;19.776;2023-03-05T01:53:38;98973.75;;;2.63;100.00
38939;BME280;24211;49.980;19.776;2023-03-05T01:56:06;98976.75;;;2.60;100.00
38939;BME280;24211;49.980;19.776;2023-03-05T01:58:33;98980.41;;;2.59;100.00
38939;BME280;24211;49.980;19.776;2023-03-05T02:01:04;98978.75;;;2.58;100.00
38939;BME280;24211;49.980;19.776;2023-03-05T02:03:32;98980.78;;;2.56;100.00
38939;BME280;24211;49.980;19.776;2023-03-05T02:06:03;98989.69;;;2.55;100.00
38939;BME280;24211;49.980;19.776;2023-03-05T02:08:30;98979.94;;;2.56;100.00
38939;BME280;24211;49.980;19.776;2023-03-05T02:10:57;98980.78;;;2.56;100.00
38939;BME280;24211;49.980;19.776;2023-03-05T02:13:32;98986.41;;;2.53;100.00
38939;BME280;24211;49.980;19.776;2023-03-05T02:16:01;98979.50;;;2.52;100.00
38939;BME280;24211;49.980;19.776;2023-03-05T02:18:29;98975.84;;;2.53;100.00
38939;BME280;24211;49.980;19.776;2023-03-05T02:20:59;98981.31;;;2.52;100.00
38939;BME280;24211;49.980;19.776;2023-03-05T02:23:31;98974.59;;;2.49;100.00
38939;BME280;24211;49.980;19.776;2023-03-05T02:26:09;98982.69;;;2.48;100.00
38939;BME280;24211;49.980;19.776;2023-03-05T02:28:46;98982.84;;;2.46;100.00
38939;BME280;24211;49.980;19.776;2023-03-05T02:31:21;98973.69;;;2.42;100.00
38939;BME280;24211;49.980;19.776;2023-03-05T02:33:51;98970.84;;;2.44;100.00
38939;BME280;24211;49.980;19.776;2023-03-05T02:36:21;98972.03;;;2.41;100.00
38939;BME280;24211;49.980;19.776;2023-03-05T02:38:49;98970.41;;;2.40;100.00
38939;BME280;24211;49.980;19.776;2023-03-05T02:41:16;98970.03;;;2.43;100.00
38939;BME280;24211;49.980;19.776;2023-03-05T02:43:43;98973.69;;;2.42;100.00
38939;BME280;24211;49.980;19.776;2023-03-05T02:46:11;98967.59;;;2.42;100.00
38939;BME280;24211;49.980;19.776;2023-03-05T02:48:38;98963.28;;;2.41;100.00
38939;BME280;24211;49.980;19.776;2023-03-05T02:51:07;98963.28;;;2.41;100.00
38939;BME280;24211;49.980;19.776;2023-03-05T02:53:34;98968.75;;;2.39;100.00
38939;BME280;24211;49.980;19.776;2023-03-05T02:56:02;98961.47;;;2.41;100.00
38939;BME280;24211;49.980;19.776;2023-03-05T02:58:33;98963.13;;;2.42;100.00
38939;BME280;24211;49.980;19.776;2023-03-05T03:01:00;98949.13;;;2.42;100.00
38939;BME280;24211;49.980;19.776;2023-03-05T03:03:29;98957.50;;;2.45;100.00
38939;BME280;24211;49.980;19.776;2023-03-05T03:05:57;98952.03;;;2.47;100.00
38939;BME280;24211;49.980;19.776;2023-03-05T03:08:24;98949.41;;;2.47;100.00
38939;BME280;24211;49.980;19.776;2023-03-05T03:10:51;98944.94;;;2.47;100.00
38939;BME280;24211;49.980;19.776;2023-03-05T03:13:18;98950.56;;;2.44;100.00
38939;BME280;24211;49.980;19.776;2023-03-05T03:15:45;98933.94;;;2.44;100.00
38939;BME280;24211;49.980;19.776;2023-03-05T03:18:12;98955.84;;;2.44;100.00
38939;BME280;24211;49.980;19.776;2023-03-05T03:20:39;98953.41;;;2.43;100.00
38939;BME280;24211;49.980;19.776;2023-03-05T03:23:07;98948.50;;;2.40;100.00
38939;BME280;24211;49.980;19.776;2023-03-05T03:25:34;98938.78;;;2.40;100.00
38939;BME280;24211;49.980;19.776;2023-03-05T03:28:01;98943.66;;;2.43;100.00
38939;BME280;24211;49.980;19.776;2023-03-05T03:30:29;98933.09;;;2.43;100.00
38939;BME280;24211;49.980;19.776;2023-03-05T03:32:56;98934.75;;;2.44;100.00
38939;BME280;24211;49.980;19.776;2023-03-05T03:35:24;98940.03;;;2.44;100.00
38939;BME280;24211;49.980;19.776;2023-03-05T03:37:50;98932.13;;;2.44;100.00
38939;BME280;24211;49.980;19.776;2023-03-05T03:40:18;98931.13;;;2.45;100.00
38939;BME280;24211;49.980;19.776;2023-03-05T03:42:45;98931.13;;;2.45;100.00
38939;BME280;24211;49.980;19.776;2023-03-05T03:45:12;98925.03;;;2.45;100.00
38939;BME280;24211;49.980;19.776;2023-03-05T03:47:40;98940.03;;;2.44;100.00
38939;BME280;24211;49.980;19.776;2023-03-05T03:50:09;98936.75;;;2.42;100.00
38939;BME280;24211;49.980;19.776;2023-03-05T03:52:36;98935.75;;;2.43;100.00
38939;BME280;24211;49.980;19.776;2023-03-05T03:55:03;98930.47;;;2.43;100.00
38939;BME280;24211;49.980;19.776;2023-03-05T03:57:31;98926.22;;;2.42;100.00
38939;BME280;24211;49.980;19.776;2023-03-05T03:59:59;98929.84;;;2.41;100.00
38939;BME280;24211;49.980;19.776;2023-03-05T04:02:27;98926.22;;;2.42;100.00
38939;BME280;24211;49.980;19.776;2023-03-05T04:04:54;98919.28;;;2.41;100.00
38939;BME280;24211;49.980;19.776;2023-03-05T04:07:21;98921.56;;;2.44;100.00
38939;BME280;24211;49.980;19.776;2023-03-05T04:09:48;98906.72;;;2.43;100.00
38939;BME280;24211;49.980;19.776;2023-03-05T04:12:16;98906.72;;;2.43;100.00
38939;BME280;24211;49.980;19.776;2023-03-05T04:14:46;98910.38;;;2.42;100.00
38939;BME280;24211;49.980;19.776;2023-03-05T04:17:14;98911.38;;;2.41;100.00
38939;BME280;24211;49.980;19.776;2023-03-05T04:19:43;98901.84;;;2.40;100.00
38939;BME280;24211;49.980;19.776;2023-03-05T04:22:16;98908.75;;;2.41;100.00
38939;BME280;24211;49.980;19.776;2023-03-05T04:24:43;98907.13;;;2.40;100.00
38939;BME280;24211;49.980;19.776;2023-03-05T04:27:11;98904.50;;;2.40;100.00
38939;BME280;24211;49.980;19.776;2023-03-05T04:29:38;98902.63;;;2.41;100.00
38939;BME280;24211;49.980;19.776;2023-03-05T04:32:05;98903.47;;;2.41;100.00
38939;BME280;24211;49.980;19.776;2023-03-05T04:34:32;98895.75;;;2.40;100.00
38939;BME280;24211;49.980;19.776;2023-03-05T04:37:00;98892.91;;;2.41;100.00
38939;BME280;24211;49.980;19.776;2023-03-05T04:39:27;98896.56;;;2.40;100.00
38939;BME280;24211;49.980;19.776;2023-03-05T04:41:54;98896.56;;;2.40;100.00
38939;BME280;24211;49.980;19.776;2023-03-05T04:44:22;98897.56;;;2.39;100.00
38939;BME280;24211;49.980;19.776;2023-03-05T04:46:51;98888.81;;;2.39;100.00
38939;BME280;24211;49.980;19.776;2023-03-05T04:49:19;98895.91;;;2.38;100.00
38939;BME280;24211;49.980;19.776;2023-03-05T04:51:46;98890.84;;;2.37;100.00
38939;BME280;24211;49.980;19.776;2023-03-05T04:54:13;98887.22;;;2.38;100.00
38939;BME280;24211;49.980;19.776;2023-03-05T04:56:40;98891.66;;;2.37;100.00
38939;BME280;24211;49.980;19.776;2023-03-05T04:59:07;98886.38;;;2.37;100.00
38939;BME280;24211;49.980;19.776;2023-03-05T05:01:34;98883.94;;;2.36;100.00
38939;BME280;24211;49.980;19.776;2023-03-05T05:04:02;98896.94;;;2.37;100.00
38939;BME280;24211;49.980;19.776;2023-03-05T05:06:29;98892.22;;;2.33;100.00
38939;BME280;24211;49.980;19.776;2023-03-05T05:08:56;98891.38;;;2.32;100.00
38939;BME280;24211;49.980;19.776;2023-03-05T05:11:23;98878.56;;;2.29;100.00
38939;BME280;24211;49.980;19.776;2023-03-05T05:13:51;98881.19;;;2.29;100.00
38939;BME280;24211;49.980;19.776;2023-03-05T05:16:18;98886.66;;;2.28;100.00
38939;BME280;24211;49.980;19.776;2023-03-05T05:18:45;98882.56;;;2.25;100.00
38939;BME280;24211;49.980;19.776;2023-03-05T05:21:13;98882.56;;;2.25;100.00
38939;BME280;24211;49.980;19.776;2023-03-05T05:23:41;98881.94;;;2.23;100.00
38939;BME280;24211;49.980;19.776;2023-03-05T05:26:09;98880.28;;;2.22;100.00
38939;BME280;24211;49.980;19.776;2023-03-05T05:28:42;98872.38;;;2.22;100.00
38939;BME280;24211;49.980;19.776;2023-03-05T05:31:12;98877.84;;;2.21;100.00
38939;BME280;24211;49.980;19.776;2023-03-05T05:33:40;98871.56;;;2.22;100.00
38939;BME280;24211;49.980;19.776;2023-03-05T05:36:13;98865.47;;;2.21;100.00
38939;BME280;24211;49.980;19.776;2023-03-05T05:38:41;98863.03;;;2.20;100.00
38939;BME280;24211;49.980;19.776;2023-03-05T05:41:12;98864.84;;;2.19;100.00
38939;BME280;24211;49.980;19.776;2023-03-05T05:43:41;98867.47;;;2.19;100.00
38939;BME280;24211;49.980;19.776;2023-03-05T05:46:12;98865.66;;;2.20;100.00
38939;BME280;24211;49.980;19.776;2023-03-05T05:48:41;98873.56;;;2.20;100.00
38939;BME280;24211;49.980;19.776;2023-03-05T05:51:16;98867.88;;;2.16;100.00
38939;BME280;24211;49.980;19.776;2023-03-05T05:53:45;98876.13;;;2.13;100.00
38939;BME280;24211;49.980;19.776;2023-03-05T05:56:13;98884.75;;;2.07;100.00
38939;BME280;24211;49.980;19.776;2023-03-05T05:58:45;98882.84;;;2.01;100.00
38939;BME280;24211;49.980;19.776;2023-03-05T06:01:27;98887.00;;;1.95;100.00
38939;BME280;24211;49.980;19.776;2023-03-05T06:03:56;98888.19;;;1.93;100.00
38939;BME280;24211;49.980;19.776;2023-03-05T06:06:25;98890.63;;;1.94;100.00
38939;BME280;24211;49.980;19.776;2023-03-05T06:08:53;98893.47;;;1.93;100.00
38939;BME280;24211;49.980;19.776;2023-03-05T06:11:21;98894.53;;;1.84;100.00
38939;BME280;24211;49.980;19.776;2023-03-05T06:13:49;98902.59;;;1.82;100.00
38939;BME280;24211;49.980;19.776;2023-03-05T06:16:20;98903.63;;;1.81;100.00
38939;BME280;24211;49.980;19.776;2023-03-05T06:18:49;98904.63;;;1.80;100.00
38939;BME280;24211;49.980;19.776;2023-03-05T06:21:20;98905.78;;;1.78;100.00
38939;BME280;24211;49.980;19.776;2023-03-05T06:23:48;98912.72;;;1.79;100.00
38939;BME280;24211;49.980;19.776;2023-03-05T06:26:20;98902.81;;;1.81;100.00
38939;BME280;24211;49.980;19.776;2023-03-05T06:28:48;98906.06;;;1.83;100.00
38939;BME280;24211;49.980;19.776;2023-03-05T06:31:18;98907.06;;;1.82;100.00
38939;BME280;24211;49.980;19.776;2023-03-05T06:33:49;98903.78;;;1.80;100.00
38939;BME280;24211;49.980;19.776;2023-03-05T06:36:18;98891.63;;;1.79;100.00
38939;BME280;24211;49.980;19.776;2023-03-05T06:38:47;98895.88;;;1.80;100.00
38939;BME280;24211;49.980;19.776;2023-03-05T06:41:19;98882.00;;;1.86;100.00
38939;BME280;24211;49.980;19.776;2023-03-05T06:43:47;98882.09;;;1.92;100.00
38939;BME280;24211;49.980;19.776;2023-03-05T06:46:30;98877.66;;;1.93;100.00
38939;BME280;24211;49.980;19.776;2023-03-05T06:49:01;98878.13;;;1.96;100.00
38939;BME280;24211;49.980;19.776;2023-03-05T06:51:33;98874.28;;;1.99;100.00
38939;BME280;24211;49.980;19.776;2023-03-05T06:54:03;98881.81;;;2.02;100.00
38939;BME280;24211;49.980;19.776;2023-03-05T06:56:31;98881.81;;;2.02;100.00
38939;BME280;24211;49.980;19.776;2023-03-05T06:58:58;98885.09;;;2.04;100.00
38939;BME280;24211;49.980;19.776;2023-03-05T07:01:25;98886.75;;;2.05;100.00
38939;BME280;24211;49.980;19.776;2023-03-05T07:03:54;98884.94;;;2.06;100.00
38939;BME280;24211;49.980;19.776;2023-03-05T07:06:21;98890.00;;;2.07;100.00
38939;BME280;24211;49.980;19.776;2023-03-05T07:08:49;98886.56;;;2.07;100.00
38939;BME280;24211;49.980;19.776;2023-03-05T07:11:19;98885.56;;;2.08;100.00
38939;BME280;24211;49.980;19.776;2023-03-05T07:13:48;98886.38;;;2.08;100.00
38939;BME280;24211;49.980;19.776;2023-03-05T07:16:28;98889.38;;;2.05;100.00
38939;BME280;24211;49.980;19.776;2023-03-05T07:18:58;98890.75;;;2.01;100.00
38939;BME280;24211;49.980;19.776;2023-03-05T07:21:28;98888.28;;;1.99;100.00
38939;BME280;24211;49.980;19.776;2023-03-05T07:24:00;98881.81;;;2.02;100.00
38939;BME280;24211;49.980;19.776;2023-03-05T07:26:31;98876.56;;;2.02;100.00
38939;BME280;24211;49.980;19.776;2023-03-05T07:29:00;98872.94;;;2.03;100.00
38939;BME280;24211;49.980;19.776;2023-03-05T07:31:28;98872.94;;;2.03;100.00
38939;BME280;24211;49.980;19.776;2023-03-05T07:34:00;98878.22;;;2.03;100.00
38939;BME280;24211;49.980;19.776;2023-03-05T07:36:29;98872.59;;;2.06;100.00
38939;BME280;24211;49.980;19.776;2023-03-05T07:38:57;98864.47;;;2.08;100.00
38939;BME280;24211;49.980;19.776;2023-03-05T07:41:24;98869.28;;;2.04;100.00
38939;BME280;24211;49.980;19.776;2023-03-05T07:43:53;98867.66;;;2.03;100.00
38939;BME280;24211;49.980;19.776;2023-03-05T07:46:28;98857.13;;;2.03;100.00
38939;BME280;24211;49.980;19.776;2023-03-05T07:48:56;98866.22;;;2.01;100.00
38939;BME280;24211;49.980;19.776;2023-03-05T07:51:25;98867.03;;;2.01;100.00
38939;BME280;24211;49.980;19.776;2023-03-05T07:53:55;98859.13;;;2.01;100.00
38939;BME280;24211;49.980;19.776;2023-03-05T07:56:31;98852.69;;;2.04;100.00
38939;BME280;24211;49.980;19.776;2023-03-05T07:59:05;98860.38;;;2.05;100.00
38939;BME280;24211;49.980;19.776;2023-03-05T08:01:34;98852.47;;;2.05;100.00
38939;BME280;24211;49.980;19.776;2023-03-05T08:04:04;98847.84;;;2.07;100.00
38939;BME280;24211;49.980;19.776;2023-03-05T08:06:31;98840.94;;;2.06;100.00
38939;BME280;24211;49.980;19.776;2023-03-05T08:08:59;98844.22;;;2.08;100.00
38939;BME280;24211;49.980;19.776;2023-03-05T08:11:29;98838.59;;;2.11;100.00
38939;BME280;24211;49.980;19.776;2023-03-05T08:13:56;98830.69;;;2.11;100.00
38939;BME280;24211;49.980;19.776;2023-03-05T08:16:26;98821.13;;;2.10;100.00
38939;BME280;24211;49.980;19.776;2023-03-05T08:18:55;98821.59;;;2.14;100.00
38939;BME280;24211;49.980;19.776;2023-03-05T08:21:27;98824.03;;;2.15;100.00
38939;BME280;24211;49.980;19.776;2023-03-05T08:24:02;98824.22;;;2.14;100.00
38939;BME280;24211;49.980;19.776;2023-03-05T08:26:32;98819.47;;;2.09;100.00
38939;BME280;24211;49.980;19.776;2023-03-05T08:29:00;98818.22;;;2.05;100.00
38939;BME280;24211;49.980;19.776;2023-03-05T08:31:30;98814.41;;;2.08;100.00
38939;BME280;24211;49.980;19.776;2023-03-05T08:34:00;98815.84;;;2.10;100.00
38939;BME280;24211;49.980;19.776;2023-03-05T08:36:29;98804.50;;;2.10;100.00
38939;BME280;24211;49.980;19.776;2023-03-05T08:38:58;98807.94;;;2.10;100.00
38939;BME280;24211;49.980;19.776;2023-03-05T08:41:25;98815.50;;;2.13;100.00
38939;BME280;24211;49.980;19.776;2023-03-05T08:43:53;98806.41;;;2.16;100.00
38939;BME280;24211;49.980;19.776;2023-03-05T08:46:20;98812.75;;;2.21;100.00
38939;BME280;24211;49.980;19.776;2023-03-05T08:48:47;98808.75;;;2.25;100.00
38939;BME280;24211;49.980;19.776;2023-03-05T08:51:18;98813.66;;;2.28;100.00
38939;BME280;24211;49.980;19.776;2023-03-05T08:53:46;98810.63;;;2.31;100.00
38939;BME280;24211;49.980;19.776;2023-03-05T08:56:14;98809.66;;;2.32;100.00
38939;BME280;24211;49.980;19.776;2023-03-05T08:58:42;98803.00;;;2.36;100.00
38939;BME280;24211;49.980;19.776;2023-03-05T09:01:10;98799.63;;;2.42;100.00
38939;BME280;24211;49.980;19.776;2023-03-05T09:03:38;98792.63;;;2.49;100.00
38939;BME280;24211;49.980;19.776;2023-03-05T09:06:09;98791.69;;;2.57;100.00
38939;BME280;24211;49.980;19.776;2023-03-05T09:08:39;98789.09;;;2.63;100.00
38939;BME280;24211;49.980;19.776;2023-03-05T09:11:10;98793.66;;;2.70;100.00
38939;BME280;24211;49.980;19.776;2023-03-05T09:13:38;98788.00;;;2.73;100.00
38939;BME280;24211;49.980;19.776;2023-03-05T09:16:10;98785.41;;;2.79;100.00
38939;BME280;24211;49.980;19.776;2023-03-05T09:18:38;98786.50;;;2.85;100.00
38939;BME280;24211;49.980;19.776;2023-03-05T09:21:11;98793.84;;;2.89;100.00
38939;BME280;24211;49.980;19.776;2023-03-05T09:23:39;98782.72;;;2.94;100.00
38939;BME280;24211;49.980;19.776;2023-03-05T09:26:09;98772.66;;;3.04;100.00
38939;BME280;24211;49.980;19.776;2023-03-05T09:28:39;98773.34;;;3.12;100.00
38939;BME280;24211;49.980;19.776;2023-03-05T09:31:08;98770.31;;;3.15;100.00
38939;BME280;24211;49.980;19.776;2023-03-05T09:33:36;98773.19;;;3.20;100.00
38939;BME280;24211;49.980;19.776;2023-03-05T09:36:15;98774.91;;;3.28;100.00
38939;BME280;24211;49.980;19.776;2023-03-05T09:38:56;98764.94;;;3.30;100.00
38939;BME280;24211;49.980;19.776;2023-03-05T09:41:56;98761.56;;;3.36;100.00
38939;BME280;24211;49.980;19.776;2023-03-05T09:44:57;98763.28;;;3.50;100.00
38939;BME280;24211;49.980;19.776;2023-03-05T09:50:53;98752.00;;;3.69;100.00
38939;BME280;24211;49.980;19.776;2023-03-05T09:53:36;98754.88;;;3.74;100.00
38939;BME280;24211;49.980;19.776;2023-03-05T09:56:34;98751.41;;;3.74;100.00
38939;BME280;24211;49.980;19.776;2023-03-05T09:59:56;98752.09;;;3.82;100.00
38939;BME280;24211;49.980;19.776;2023-03-05T10:02:33;98746.00;;;3.88;100.00
38939;BME280;24211;49.980;19.776;2023-03-05T10:08:04;98736.72;;;4.06;100.00
38939;BME280;24211;49.980;19.776;2023-03-05T10:10:44;98742.88;;;4.13;100.00
38939;BME280;24211;49.980;19.776;2023-03-05T10:13:24;98729.47;;;4.21;100.00
38939;BME280;24211;49.980;19.776;2023-03-05T10:21:52;98722.81;;;4.38;100.00
38939;BME280;24211;49.980;19.776;2023-03-05T10:27:56;98716.13;;;4.55;100.00
38939;BME280;24211;49.980;19.776;2023-03-05T10:33:29;98703.16;;;4.67;100.00
38939;BME280;24211;49.980;19.776;2023-03-05T10:36:37;98707.22;;;4.69;100.00
38939;BME280;24211;49.980;19.776;2023-03-05T10:45:32;98688.50;;;4.64;100.00
38939;BME280;24211;49.980;19.776;2023-03-05T10:50:56;98687.25;;;4.60;100.00
38939;BME280;24211;49.980;19.776;2023-03-05T10:53:34;98693.34;;;4.54;100.00
38939;BME280;24211;49.980;19.776;2023-03-05T10:56:10;98696.19;;;4.46;100.00
38939;BME280;24211;49.980;19.776;2023-03-05T10:58:38;98686.81;;;4.37;100.00
38939;BME280;24211;49.980;19.776;2023-03-05T11:01:21;98686.19;;;4.35;100.00
38939;BME280;24211;49.980;19.776;2023-03-05T11:04:25;98686.75;;;4.24;100.00
38939;BME280;24211;49.980;19.776;2023-03-05T11:06:52;98693.25;;;4.15;100.00
38939;BME280;24211;49.980;19.776;2023-03-05T11:09:29;98687.38;;;4.13;100.00
38939;BME280;24211;49.980;19.776;2023-03-05T11:12:08;98690.41;;;4.10;100.00
38939;BME280;24211;49.980;19.776;2023-03-05T11:15:27;98687.53;;;4.11;100.00
38939;BME280;24211;49.980;19.776;2023-03-05T11:17:36;98678.56;;;4.06;100.00
38939;BME280;24211;49.980;19.776;2023-03-05T11:23:21;98688.00;;;3.74;100.00
38939;BME280;24211;49.980;19.776;2023-03-05T11:26:02;98697.09;;;3.58;100.00
38939;BME280;24211;49.980;19.776;2023-03-05T11:28:38;98689.28;;;3.44;100.00
38939;BME280;24211;49.980;19.776;2023-03-05T11:34:20;98683.03;;;3.17;100.00
38939;BME280;24211;49.980;19.776;2023-03-05T11:39:20;98680.53;;;3.09;100.00
38939;BME280;24211;49.980;19.776;2023-03-05T11:42:12;98686.47;;;2.90;100.00
38939;BME280;24211;49.980;19.776;2023-03-05T11:44:49;98688.72;;;2.93;100.00
38939;BME280;24211;49.980;19.776;2023-03-05T11:47:43;98687.59;;;2.81;100.00
38939;BME280;24211;49.980;19.776;2023-03-05T11:52:54;98674.34;;;2.74;100.00
38939;BME280;24211;49.980;19.776;2023-03-05T11:55:43;98677.75;;;2.68;100.00
38939;BME280;24211;49.980;19.776;2023-03-05T11:58:38;98672.41;;;2.61;100.00
38939;BME280;24211;49.980;19.776;2023-03-05T12:01:24;98669.13;;;2.53;100.00
38939;BME280;24211;49.980;19.776;2023-03-05T12:03:52;98668.22;;;2.46;100.00
38939;BME280;24211;49.980;19.776;2023-03-05T12:06:56;98657.56;;;2.33;100.00
38939;BME280;24211;49.980;19.776;2023-03-05T12:09:30;98657.94;;;2.30;100.00
38939;BME280;24211;49.980;19.776;2023-03-05T12:12:49;98651.22;;;2.27;100.00
38939;BME280;24211;49.980;19.776;2023-03-05T12:15:46;98663.19;;;2.30;100.00
38939;BME280;24211;49.980;19.776;2023-03-05T12:21:22;98655.84;;;2.25;100.00
38939;BME280;24211;49.980;19.776;2023-03-05T12:23:57;98654.84;;;2.26;100.00
38939;BME280;24211;49.980;19.776;2023-03-05T12:26:54;98653.84;;;2.27;100.00
38939;BME280;24211;49.980;19.776;2023-03-05T12:29:39;98646.94;;;2.26;100.00
38939;BME280;24211;49.980;19.776;2023-03-05T12:34:56;98641.78;;;2.39;100.00
38939;BME280;24211;49.980;19.776;2023-03-05T12:45:21;98634.63;;;2.54;100.00
38939;BME280;24211;49.980;19.776;2023-03-05T12:53:13;98627.25;;;2.71;100.00
38939;BME280;24211;49.980;19.776;2023-03-05T12:58:32;98625.88;;;2.75;100.00
38939;BME280;24211;49.980;19.776;2023-03-05T13:01:26;98633.38;;;2.78;100.00
38939;BME280;24211;49.980;19.776;2023-03-05T13:04:01;98627.72;;;2.81;100.00
38939;BME280;24211;49.980;19.776;2023-03-05T13:06:34;98624.88;;;2.83;100.00
38939;BME280;24211;49.980;19.776;2023-03-05T13:09:06;98623.50;;;2.87;100.00
38939;BME280;24211;49.980;19.776;2023-03-05T13:11:36;98620.66;;;2.88;100.00
38939;BME280;24211;49.980;19.776;2023-03-05T13:17:51;98628.19;;;2.85;100.00
38939;BME280;24211;49.980;19.776;2023-03-05T13:20:32;98632.44;;;2.86;100.00
38939;BME280;24211;49.980;19.776;2023-03-05T13:31:30;98625.53;;;2.85;100.00
38939;BME280;24211;49.980;19.776;2023-03-05T13:36:39;98621.88;;;2.86;100.00
38939;BME280;24211;49.980;19.776;2023-03-05T13:39:24;98613.78;;;2.87;100.00
38939;BME280;24211;49.980;19.776;2023-03-05T13:42:28;98614.97;;;2.85;100.00
38939;BME280;24211;49.980;19.776;2023-03-05T13:45:24;98611.69;;;2.83;100.00
38939;BME280;24211;49.980;19.776;2023-03-05T13:48:02;98617.66;;;2.91;100.00
38939;BME280;24211;49.980;19.776;2023-03-05T13:50:36;98609.78;;;2.98;100.00
38939;BME280;24211;49.980;19.776;2023-03-05T13:53:30;98614.28;;;3.04;100.00
38939;BME280;24211;49.980;19.776;2023-03-05T13:56:04;98616.78;;;3.12;100.00
38939;BME280;24211;49.980;19.776;2023-03-05T13:58:55;98605.03;;;3.21;100.00
38939;BME280;24211;49.980;19.776;2023-03-05T14:01:32;98612.41;;;3.32;100.00
38939;BME280;24211;49.980;19.776;2023-03-05T14:04:15;98593.00;;;3.53;100.00
38939;BME280;24211;49.980;19.776;2023-03-05T14:09:53;98575.22;;;3.87;100.00
38939;BME280;24211;49.980;19.776;2023-03-05T14:12:37;98580.13;;;4.04;100.00
38939;BME280;24211;49.980;19.776;2023-03-05T14:15:25;98571.63;;;4.15;100.00
38939;BME280;24211;49.980;19.776;2023-03-05T14:18:18;98572.22;;;4.17;100.00
38939;BME280;24211;49.980;19.776;2023-03-05T14:21:07;98581.78;;;4.18;100.00
38939;BME280;24211;49.980;19.776;2023-03-05T14:23:39;98567.94;;;4.16;100.00
38939;BME280;24211;49.980;19.776;2023-03-05T14:31:55;98577.72;;;4.15;100.00
38939;BME280;24211;49.980;19.776;2023-03-05T14:34:34;98577.28;;;3.98;100.00
38939;BME280;24211;49.980;19.776;2023-03-05T14:40:05;98564.06;;;3.85;100.00
38939;BME280;24211;49.980;19.776;2023-03-05T14:45:14;98557.31;;;3.76;100.00
38939;BME280;24211;49.980;19.776;2023-03-05T14:47:42;98558.94;;;3.71;100.00
38939;BME280;24211;49.980;19.776;2023-03-05T14:50:15;98565.81;;;3.65;100.00
38939;BME280;24211;49.980;19.776;2023-03-05T14:52:45;98563.56;;;3.62;100.00